createdAt,value
2023-04-08T00:00:13.740Z,14.77
2023-04-08T00:03:02.747Z,13.93
2023-04-08T00:05:30.167Z,15.38
2023-04-08T00:07:57.668Z,15.50
2023-04-08T00:10:26.483Z,14.18
2023-04-08T00:12:54.113Z,14.90
2023-04-08T00:15:21.320Z,14.45
2023-04-08T00:17:48.922Z,14.63
2023-04-08T00:20:16.499Z,13.85
2023-04-08T00:22:44.009Z,14.50
2023-04-08T00:25:11.322Z,15.30
2023-04-08T00:27:38.960Z,15.35
2023-04-08T00:30:07.123Z,13.77
2023-04-08T00:32:34.754Z,15.18
2023-04-08T00:35:02.805Z,14.00
2023-04-08T00:37:31.547Z,14.35
2023-04-08T00:39:58.825Z,14.88
2023-04-08T00:42:26.684Z,13.27
2023-04-08T00:44:53.972Z,15.00
2023-04-08T00:47:21.529Z,14.30
2023-04-08T00:49:49.055Z,15.55
2023-04-08T00:52:17.124Z,14.40
2023-04-08T00:54:44.426Z,15.30
2023-04-08T00:57:12.002Z,16.13
2023-04-08T00:59:39.439Z,19.15
2023-04-08T01:02:15.400Z,20.10
2023-04-08T01:05:07.871Z,20.10
2023-04-08T01:07:44.778Z,19.02
2023-04-08T01:10:34.635Z,19.77
2023-04-08T01:13:08.436Z,20.80
2023-04-08T01:15:39.023Z,21.48
2023-04-08T01:18:14.391Z,17.33
2023-04-08T01:20:43.366Z,21.50
2023-04-08T01:23:21.047Z,19.88
2023-04-08T01:25:58.733Z,21.65
2023-04-08T01:28:31.040Z,21.30
2023-04-08T01:31:01.720Z,20.83
2023-04-08T01:33:31.626Z,22.42
2023-04-08T01:36:00.667Z,21.73
2023-04-08T01:38:31.916Z,21.73
2023-04-08T01:41:00.106Z,21.50
2023-04-08T01:43:28.712Z,21.25
2023-04-08T01:45:58.579Z,22.60
2023-04-08T01:48:27.986Z,28.60
2023-04-08T01:50:57.054Z,27.15
2023-04-08T01:53:24.746Z,30.20
2023-04-08T01:56:01.771Z,28.33
2023-04-08T01:58:33.321Z,27.67
2023-04-08T02:01:00.985Z,30.85
2023-04-08T02:03:31.183Z,31.17
2023-04-08T02:05:58.606Z,31.02
2023-04-08T02:08:26.258Z,29.30
2023-04-08T02:10:54.349Z,31.50
2023-04-08T02:13:21.914Z,31.60
2023-04-08T02:15:56.310Z,30.85
2023-04-08T02:18:29.859Z,29.65
2023-04-08T02:21:04.722Z,31.27
2023-04-08T02:23:35.644Z,30.88
2023-04-08T02:26:06.051Z,33.72
2023-04-08T02:28:35.664Z,34.03
2023-04-08T02:31:03.824Z,34.88
2023-04-08T02:33:33.990Z,33.78
2023-04-08T02:36:03.250Z,36.03
2023-04-08T02:38:30.978Z,36.95
2023-04-08T02:40:58.826Z,39.50
2023-04-08T02:43:32.621Z,36.78
2023-04-08T02:46:03.706Z,35.95
2023-04-08T02:48:31.707Z,35.28
2023-04-08T02:50:58.916Z,35.17
2023-04-08T02:53:26.561Z,35.60
2023-04-08T02:55:53.910Z,33.50
2023-04-08T02:58:21.448Z,34.55
2023-04-08T03:00:48.667Z,30.67
2023-04-08T03:03:16.388Z,32.22
2023-04-08T03:05:43.791Z,32.35
2023-04-08T03:08:11.381Z,30.83
2023-04-08T03:10:38.581Z,32.42
2023-04-08T03:13:06.165Z,33.25
2023-04-08T03:15:33.548Z,31.65
2023-04-08T03:18:01.110Z,30.85
2023-04-08T03:20:28.309Z,30.40
2023-04-08T03:22:56.123Z,30.98
2023-04-08T03:25:23.313Z,30.15
2023-04-08T03:27:51.243Z,29.20
2023-04-08T03:30:18.654Z,27.65
2023-04-08T03:32:46.355Z,28.95
2023-04-08T03:35:13.670Z,27.98
2023-04-08T03:37:41.233Z,29.42
2023-04-08T03:40:09.345Z,28.48
2023-04-08T03:42:36.946Z,29.90
2023-04-08T03:45:04.872Z,32.03
2023-04-08T03:47:32.402Z,31.83
2023-04-08T03:49:59.669Z,33.70
2023-04-08T03:52:27.262Z,33.20
2023-04-08T03:54:54.510Z,33.08
2023-04-08T03:57:22.047Z,30.13
2023-04-08T03:59:49.285Z,31.50
2023-04-08T04:02:16.979Z,31.15
2023-04-08T04:04:44.364Z,29.63
2023-04-08T04:07:11.893Z,32.13
2023-04-08T04:09:39.048Z,31.27
2023-04-08T04:12:06.537Z,31.00
2023-04-08T04:14:33.756Z,33.38
2023-04-08T04:17:01.369Z,31.40
2023-04-08T04:19:32.030Z,30.38
2023-04-08T04:21:59.820Z,32.72
2023-04-08T04:24:27.068Z,31.08
2023-04-08T04:26:54.565Z,30.80
2023-04-08T04:29:21.755Z,32.60
2023-04-08T04:31:49.269Z,30.65
2023-04-08T04:34:17.308Z,34.65
2023-04-08T04:36:44.907Z,31.08
2023-04-08T04:39:12.107Z,31.90
2023-04-08T04:41:40.724Z,30.75
2023-04-08T04:44:07.999Z,28.52
2023-04-08T04:46:35.580Z,29.23
2023-04-08T04:49:02.902Z,27.55
2023-04-08T04:51:33.206Z,29.13
2023-04-08T04:54:00.571Z,29.48
2023-04-08T04:56:28.045Z,28.98
2023-04-08T04:58:55.233Z,26.48
2023-04-08T05:01:22.771Z,27.83
2023-04-08T05:03:50.068Z,26.35
2023-04-08T05:06:17.609Z,26.70
2023-04-08T05:08:44.902Z,26.50
2023-04-08T05:11:12.673Z,25.83
2023-04-08T05:13:40.002Z,24.23
2023-04-08T05:16:07.852Z,23.58
2023-04-08T05:18:35.377Z,24.05
2023-04-08T05:21:03.398Z,22.38
2023-04-08T05:23:30.647Z,21.73
2023-04-08T05:25:58.164Z,22.17
2023-04-08T05:28:25.649Z,20.15
2023-04-08T05:30:54.624Z,21.45
2023-04-08T05:33:21.869Z,20.83
2023-04-08T05:35:49.378Z,19.95
2023-04-08T05:38:16.664Z,21.67
2023-04-08T05:40:44.352Z,21.27
2023-04-08T05:43:11.519Z,22.23
2023-04-08T05:45:38.982Z,20.90
2023-04-08T05:48:06.364Z,21.33
2023-04-08T05:50:36.333Z,21.83
2023-04-08T05:53:03.582Z,20.00
2023-04-08T05:55:31.189Z,22.38
2023-04-08T05:57:58.399Z,21.98
2023-04-08T06:00:26.933Z,20.02
2023-04-08T06:02:54.414Z,19.13
2023-04-08T06:05:22.076Z,18.48
2023-04-08T06:07:49.287Z,18.65
2023-04-08T06:10:16.855Z,20.50
2023-04-08T06:12:44.069Z,20.63
2023-04-08T06:15:11.700Z,20.08
2023-04-08T06:17:39.460Z,21.25
2023-04-08T06:20:09.456Z,20.92
2023-04-08T06:22:36.956Z,20.20
2023-04-08T06:25:04.673Z,20.35
2023-04-08T06:27:32.076Z,21.85
2023-04-08T06:29:59.538Z,20.67
2023-04-08T06:32:26.816Z,21.15
2023-04-08T06:34:54.286Z,21.30
2023-04-08T06:37:21.581Z,19.48
2023-04-08T06:39:49.060Z,19.85
2023-04-08T06:42:16.253Z,20.88
2023-04-08T06:45:00.027Z,21.52
2023-04-08T06:47:27.240Z,19.38
2023-04-08T06:49:54.767Z,20.17
2023-04-08T06:52:21.978Z,20.55
2023-04-08T06:54:49.533Z,20.02
2023-04-08T06:57:16.765Z,18.52
2023-04-08T06:59:44.231Z,20.70
2023-04-08T07:02:11.776Z,18.75
2023-04-08T07:04:39.322Z,19.08
2023-04-08T07:07:07.394Z,19.23
2023-04-08T07:09:36.993Z,19.48
2023-04-08T07:12:05.042Z,17.83
2023-04-08T07:14:32.638Z,18.45
2023-04-08T07:16:59.864Z,18.48
2023-04-08T07:19:27.749Z,18.45
2023-04-08T07:21:54.978Z,17.42
2023-04-08T07:24:22.474Z,17.83
2023-04-08T07:26:49.793Z,19.20
2023-04-08T07:29:17.394Z,20.00
2023-04-08T07:31:44.939Z,17.75
2023-04-08T07:34:12.404Z,18.92
2023-04-08T07:36:40.835Z,19.55
2023-04-08T07:39:08.377Z,18.27
2023-04-08T07:41:35.632Z,19.42
2023-04-08T07:44:03.185Z,18.17
2023-04-08T07:46:31.728Z,18.33
2023-04-08T07:48:59.255Z,16.77
2023-04-08T07:51:27.752Z,17.55
2023-04-08T07:53:55.302Z,18.02
2023-04-08T07:56:22.552Z,18.05
2023-04-08T07:58:53.311Z,18.23
2023-04-08T08:01:23.035Z,17.27
2023-04-08T08:03:52.900Z,19.13
2023-04-08T08:06:20.930Z,17.73
2023-04-08T08:08:48.564Z,19.30
2023-04-08T08:11:15.838Z,19.63
2023-04-08T08:13:43.454Z,17.98
2023-04-08T08:16:12.074Z,18.45
2023-04-08T08:18:41.157Z,16.70
2023-04-08T08:21:09.068Z,16.70
2023-04-08T08:23:37.912Z,16.63
2023-04-08T08:26:07.780Z,16.88
2023-04-08T08:28:35.589Z,17.02
2023-04-08T08:31:03.669Z,15.30
2023-04-08T08:33:31.446Z,15.50
2023-04-08T08:35:58.935Z,14.80
2023-04-08T08:38:27.185Z,15.85
2023-04-08T08:40:56.372Z,14.57
2023-04-08T08:43:25.398Z,13.15
2023-04-08T08:45:53.246Z,12.20
2023-04-08T08:48:20.903Z,12.50
2023-04-08T08:50:48.147Z,13.10
2023-04-08T08:53:15.653Z,12.15
2023-04-08T08:58:13.796Z,12.93
2023-04-08T09:00:45.548Z,12.35
2023-04-08T09:03:23.757Z,11.68
2023-04-08T09:05:59.507Z,12.18
2023-04-08T09:08:35.557Z,12.20
2023-04-08T09:11:22.496Z,11.23
2023-04-08T09:13:50.648Z,10.82
2023-04-08T09:16:23.050Z,10.73
2023-04-08T09:18:56.115Z,10.02
2023-04-08T09:21:27.668Z,10.43
2023-04-08T09:23:55.307Z,9.48
2023-04-08T09:26:24.900Z,9.57
2023-04-08T09:29:25.224Z,9.02
2023-04-08T09:32:01.140Z,8.13
2023-04-08T09:34:30.954Z,7.82
2023-04-08T09:36:58.217Z,10.02
2023-04-08T09:39:25.895Z,8.57
2023-04-08T09:41:58.527Z,7.78
2023-04-08T09:44:29.315Z,9.90
2023-04-08T09:47:08.503Z,8.82
2023-04-08T09:49:51.544Z,7.88
2023-04-08T09:52:24.420Z,6.43
2023-04-08T09:54:55.732Z,6.78
2023-04-08T09:57:37.198Z,7.88
2023-04-08T10:00:11.085Z,9.82
2023-04-08T10:03:05.613Z,8.40
2023-04-08T10:05:39.779Z,7.68
2023-04-08T10:08:07.738Z,7.75
2023-04-08T10:10:39.859Z,7.65
2023-04-08T10:13:08.386Z,7.20
2023-04-08T10:15:37.664Z,7.30
2023-04-08T10:18:05.766Z,6.68
2023-04-08T10:20:36.489Z,6.70
2023-04-08T10:23:05.523Z,8.43
2023-04-08T10:25:40.563Z,8.02
2023-04-08T10:28:19.781Z,9.00
2023-04-08T10:30:48.209Z,7.80
2023-04-08T10:33:19.530Z,7.72
2023-04-08T10:38:17.859Z,8.20
2023-04-08T10:40:46.063Z,8.25
2023-04-08T10:43:15.148Z,8.65
2023-04-08T10:45:45.784Z,9.85
2023-04-08T10:48:18.792Z,9.23
2023-04-08T10:50:55.199Z,8.52
2023-04-08T10:53:37.831Z,7.60
2023-04-08T10:56:13.282Z,7.40
2023-04-08T10:58:59.920Z,8.43
2023-04-08T11:01:27.885Z,8.68
2023-04-08T11:03:55.358Z,9.40
2023-04-08T11:06:23.518Z,7.82
2023-04-08T11:08:50.703Z,7.93
2023-04-08T11:11:19.486Z,8.68
2023-04-08T11:13:53.287Z,7.90
2023-04-08T11:16:22.569Z,7.65
2023-04-08T11:18:51.477Z,8.02
2023-04-08T11:21:19.181Z,7.70
2023-04-08T11:23:50.167Z,8.40
2023-04-08T11:26:19.319Z,8.15
2023-04-08T11:28:49.224Z,7.85
2023-04-08T11:31:17.771Z,7.65
2023-04-08T11:33:49.912Z,7.80
2023-04-08T11:36:18.929Z,7.78
2023-04-08T11:38:48.174Z,7.25
2023-04-08T11:41:16.362Z,8.27
2023-04-08T11:43:54.471Z,7.85
2023-04-08T11:46:23.124Z,7.75
2023-04-08T11:49:08.133Z,8.50
2023-04-08T11:55:28.387Z,8.45
2023-04-08T11:57:57.427Z,11.70
2023-04-08T12:00:24.769Z,14.68
2023-04-08T12:02:53.132Z,13.63
2023-04-08T12:05:21.161Z,14.23
2023-04-08T12:07:48.864Z,13.68
2023-04-08T12:10:16.161Z,14.45
2023-04-08T12:12:43.694Z,13.68
2023-04-08T12:15:11.603Z,12.80
2023-04-08T12:17:39.123Z,13.30
2023-04-08T12:20:07.760Z,13.07
2023-04-08T12:22:35.382Z,13.50
2023-04-08T12:25:04.132Z,13.18
2023-04-08T12:27:33.590Z,11.57
2023-04-08T12:30:02.296Z,12.45
2023-04-08T12:32:30.848Z,11.55
2023-04-08T12:34:58.160Z,12.48
2023-04-08T12:37:25.646Z,11.30
2023-04-08T12:39:52.854Z,11.35
2023-04-08T12:42:20.371Z,10.25
2023-04-08T12:44:47.666Z,10.25
2023-04-08T12:47:15.336Z,12.40
2023-04-08T12:49:49.308Z,13.35
2023-04-08T12:52:17.774Z,13.48
2023-04-08T12:54:45.124Z,12.85
2023-04-08T12:57:12.714Z,13.00
2023-04-08T12:59:40.288Z,13.00
2023-04-08T13:02:08.237Z,15.07
2023-04-08T13:04:35.704Z,15.10
2023-04-08T13:07:04.525Z,14.60
2023-04-08T13:09:31.776Z,20.05
2023-04-08T13:11:59.759Z,14.75
2023-04-08T13:14:27.527Z,14.98
2023-04-08T13:16:55.138Z,15.70
2023-04-08T13:19:22.452Z,17.00
2023-04-08T13:21:49.912Z,16.00
2023-04-08T13:24:17.149Z,17.65
2023-04-08T13:26:44.665Z,18.48
2023-04-08T13:29:11.974Z,18.63
2023-04-08T13:31:39.577Z,18.83
2023-04-08T13:34:07.167Z,16.83
2023-04-08T13:36:34.641Z,16.92
2023-04-08T13:39:02.187Z,16.13
2023-04-08T13:41:30.187Z,18.33
2023-04-08T13:43:57.398Z,17.65
2023-04-08T13:46:24.996Z,17.58
2023-04-08T13:48:52.726Z,17.42
2023-04-08T13:51:20.503Z,16.80
2023-04-08T13:53:47.782Z,16.67
2023-04-08T13:56:15.478Z,17.35
2023-04-08T13:58:42.898Z,17.33
2023-04-08T14:01:11.228Z,18.27
2023-04-08T14:03:38.610Z,19.23
2023-04-08T14:06:06.107Z,17.80
2023-04-08T14:08:33.331Z,21.35
2023-04-08T14:11:00.952Z,22.27
2023-04-08T14:13:28.220Z,21.77
2023-04-08T14:15:58.525Z,20.95
2023-04-08T14:18:26.238Z,21.05
2023-04-08T14:20:53.663Z,20.38
2023-04-08T14:23:21.280Z,20.05
2023-04-08T14:25:48.868Z,18.65
2023-04-08T14:28:16.209Z,17.92
2023-04-08T14:30:43.811Z,18.65
2023-04-08T14:33:11.462Z,16.73
2023-04-08T14:35:39.011Z,17.33
2023-04-08T14:38:06.399Z,16.13
2023-04-08T14:40:34.728Z,15.77
2023-04-08T14:43:03.160Z,15.85
2023-04-08T14:45:31.134Z,14.10
2023-04-08T14:47:58.327Z,13.57
2023-04-08T14:50:25.822Z,13.00
2023-04-08T14:52:53.090Z,12.77
2023-04-08T14:55:22.588Z,11.55
2023-04-08T14:57:49.873Z,12.00
2023-04-08T15:00:17.520Z,12.48
2023-04-08T15:02:44.874Z,11.98
2023-04-08T15:05:12.465Z,11.52
2023-04-08T15:07:39.836Z,11.10
2023-04-08T15:10:07.946Z,11.85
2023-04-08T15:12:36.478Z,12.40
2023-04-08T15:15:04.779Z,12.32
2023-04-08T15:17:32.232Z,11.65
2023-04-08T15:19:59.839Z,10.85
2023-04-08T15:22:27.185Z,11.30
2023-04-08T15:24:54.745Z,10.75
2023-04-08T15:27:22.901Z,10.25
2023-04-08T15:29:50.394Z,9.73
2023-04-08T15:32:17.567Z,11.23
2023-04-08T15:34:45.132Z,11.35
2023-04-08T15:37:12.330Z,12.18
2023-04-08T15:39:41.780Z,12.57
2023-04-08T15:42:09.094Z,13.45
2023-04-08T15:44:36.881Z,11.43
2023-04-08T15:47:04.839Z,12.65
2023-04-08T15:49:32.478Z,12.65
2023-04-08T15:51:59.788Z,12.10
2023-04-08T15:54:29.464Z,12.75
2023-04-08T15:56:58.363Z,13.80
2023-04-08T15:59:29.801Z,12.85
2023-04-08T16:01:57.299Z,13.77
2023-04-08T16:04:25.124Z,12.63
2023-04-08T16:06:52.433Z,12.35
2023-04-08T16:09:25.527Z,11.57
2023-04-08T16:11:53.847Z,12.23
2023-04-08T16:14:21.458Z,13.70
2023-04-08T16:16:49.294Z,12.70
2023-04-08T16:19:17.485Z,13.23
2023-04-08T16:21:44.744Z,13.73
2023-04-08T16:24:12.235Z,12.32
2023-04-08T16:26:40.911Z,12.77
2023-04-08T16:29:08.503Z,12.40
2023-04-08T16:31:35.969Z,12.52
2023-04-08T16:34:04.379Z,12.77
2023-04-08T16:36:31.569Z,12.80
2023-04-08T16:38:59.181Z,12.43
2023-04-08T16:41:26.552Z,12.00
2023-04-08T16:43:54.117Z,13.20
2023-04-08T16:46:22.117Z,11.65
2023-04-08T16:48:49.575Z,12.55
2023-04-08T16:51:17.641Z,12.80
2023-04-08T16:53:45.143Z,12.90
2023-04-08T16:56:16.480Z,12.40
2023-04-08T16:58:44.085Z,11.50
2023-04-08T17:01:14.198Z,12.63
2023-04-08T17:03:42.119Z,11.48
2023-04-08T17:06:12.151Z,10.50
2023-04-08T17:08:43.573Z,12.07
2023-04-08T17:11:13.500Z,12.43
2023-04-08T17:13:42.706Z,11.05
2023-04-08T17:16:15.001Z,10.00
2023-04-08T17:18:44.294Z,9.52
2023-04-08T17:21:14.116Z,9.93
2023-04-08T17:23:41.936Z,9.82
2023-04-08T17:26:10.115Z,10.25
2023-04-08T17:28:38.106Z,10.45
2023-04-08T17:31:05.378Z,9.73
2023-04-08T17:33:34.092Z,9.57
2023-04-08T17:36:01.626Z,10.82
2023-04-08T17:38:29.278Z,9.55
2023-04-08T17:40:56.597Z,9.52
2023-04-08T17:43:24.295Z,10.20
2023-04-08T17:45:51.751Z,8.82
2023-04-08T17:48:19.281Z,10.05
2023-04-08T17:50:46.512Z,9.70
2023-04-08T17:53:14.144Z,10.13
2023-04-08T17:55:41.342Z,10.02
2023-04-08T17:58:08.979Z,9.60
2023-04-08T18:00:36.222Z,10.13
2023-04-08T18:03:04.362Z,9.65
2023-04-08T18:05:32.045Z,10.30
2023-04-08T18:07:59.705Z,10.07
2023-04-08T18:10:27.018Z,10.25
2023-04-08T18:13:03.751Z,11.23
2023-04-08T18:15:36.221Z,9.35
2023-04-08T18:18:04.227Z,10.65
2023-04-08T18:20:35.699Z,12.23
2023-04-08T18:25:34.669Z,11.43
2023-04-08T18:28:02.260Z,10.27
2023-04-08T18:30:30.371Z,10.02
2023-04-08T18:32:58.077Z,11.45
2023-04-08T18:35:25.955Z,12.07
2023-04-08T18:37:53.576Z,11.93
2023-04-08T18:40:20.889Z,11.75
2023-04-08T18:42:48.473Z,12.45
2023-04-08T18:45:15.844Z,12.23
2023-04-08T18:47:43.445Z,10.75
2023-04-08T18:50:10.887Z,10.40
2023-04-08T18:52:39.052Z,9.45
2023-04-08T18:55:06.620Z,10.10
2023-04-08T18:57:34.589Z,10.20
2023-04-08T19:00:01.960Z,10.88
2023-04-08T19:02:29.572Z,11.82
2023-04-08T19:04:58.192Z,12.02
2023-04-08T19:07:26.121Z,15.60
2023-04-08T19:09:59.577Z,16.92
2023-04-08T19:12:27.382Z,16.70
2023-04-08T19:14:54.887Z,16.33
2023-04-08T19:17:22.353Z,15.40
2023-04-08T19:19:49.538Z,14.88
2023-04-08T19:22:17.147Z,14.15
2023-04-08T19:24:44.728Z,14.40
2023-04-08T19:27:14.091Z,14.00
2023-04-08T19:29:41.353Z,14.13
2023-04-08T19:32:08.982Z,13.23
2023-04-08T19:34:39.433Z,13.27
2023-04-08T19:37:07.459Z,13.05
2023-04-08T19:39:34.669Z,12.80
2023-04-08T19:42:02.218Z,12.75
2023-04-08T19:44:29.441Z,12.52
2023-04-08T19:46:57.912Z,12.68
2023-04-08T19:49:25.352Z,12.65
2023-04-08T19:51:53.021Z,13.95
2023-04-08T19:54:20.234Z,15.48
2023-04-08T19:56:47.762Z,14.18
2023-04-08T19:59:16.745Z,13.75
2023-04-08T20:01:44.331Z,15.65
2023-04-08T20:04:11.700Z,16.25
2023-04-08T20:06:39.242Z,16.67
2023-04-08T20:09:06.539Z,17.23
2023-04-08T20:11:34.557Z,19.35
2023-04-08T20:14:03.714Z,22.10
2023-04-08T20:16:32.069Z,19.88
2023-04-08T20:18:59.377Z,20.83
2023-04-08T20:21:26.845Z,22.27
2023-04-08T20:23:54.192Z,22.58
2023-04-08T20:26:21.689Z,22.65
2023-04-08T20:28:49.632Z,21.80
2023-04-08T20:31:17.405Z,22.08
2023-04-08T20:33:45.635Z,22.33
2023-04-08T20:36:13.809Z,21.98
2023-04-08T20:38:42.701Z,24.55
2023-04-08T20:41:10.441Z,21.33
2023-04-08T20:43:39.412Z,22.25
2023-04-08T20:46:07.619Z,20.10
2023-04-08T20:48:34.803Z,21.13
2023-04-08T20:51:02.928Z,21.35
2023-04-08T20:53:30.185Z,20.02
2023-04-08T20:55:57.644Z,20.50
2023-04-08T20:58:24.839Z,19.52
2023-04-08T21:00:52.512Z,20.38
2023-04-08T21:03:20.773Z,20.80
2023-04-08T21:05:49.074Z,19.50
2023-04-08T21:08:16.293Z,19.90
2023-04-08T21:10:43.839Z,21.00
2023-04-08T21:13:11.075Z,19.85
2023-04-08T21:15:38.582Z,20.52
2023-04-08T21:18:11.132Z,20.45
2023-04-08T21:20:41.894Z,21.10
2023-04-08T21:23:09.218Z,20.52
2023-04-08T21:25:36.662Z,21.73
2023-04-08T21:28:04.991Z,21.48
2023-04-08T21:30:32.507Z,22.40
2023-04-08T21:32:59.721Z,21.75
2023-04-08T21:35:27.265Z,24.15
2023-04-08T21:37:55.004Z,22.70
2023-04-08T21:40:22.641Z,21.48
2023-04-08T21:42:49.878Z,23.98
2023-04-08T21:45:17.887Z,24.73
2023-04-08T21:47:45.606Z,23.25
2023-04-08T21:50:13.145Z,23.13
2023-04-08T21:52:43.008Z,23.17
2023-04-08T21:55:11.227Z,23.83
2023-04-08T21:57:39.306Z,22.20
2023-04-08T22:00:13.180Z,22.08
2023-04-08T22:02:43.957Z,22.83
2023-04-08T22:05:11.817Z,22.40
2023-04-08T22:07:39.079Z,22.45
2023-04-08T22:10:07.454Z,23.08
2023-04-08T22:12:34.867Z,23.65
2023-04-08T22:15:03.086Z,22.95
2023-04-08T22:17:30.277Z,23.08
2023-04-08T22:19:57.805Z,22.98
2023-04-08T22:22:24.974Z,21.33
2023-04-08T22:24:52.638Z,21.25
2023-04-08T22:27:19.906Z,20.50
2023-04-08T22:29:47.381Z,18.85
2023-04-08T22:32:14.930Z,19.65
2023-04-08T22:34:42.450Z,19.70
2023-04-08T22:37:09.663Z,19.00
2023-04-08T22:39:37.177Z,19.27
2023-04-08T22:42:04.350Z,20.77
2023-04-08T22:44:32.066Z,20.25
2023-04-08T22:46:59.354Z,19.25
2023-04-08T22:49:27.143Z,17.48
2023-04-08T22:51:54.302Z,16.55
2023-04-08T22:54:21.872Z,16.13
2023-04-08T22:56:49.114Z,17.02
2023-04-08T22:59:16.584Z,15.80
2023-04-08T23:01:45.194Z,16.88
2023-04-08T23:04:12.863Z,16.00
2023-04-08T23:06:40.238Z,16.35
2023-04-08T23:09:07.791Z,15.23
2023-04-08T23:11:34.959Z,14.88
2023-04-08T23:14:02.585Z,14.85
2023-04-08T23:16:30.928Z,14.75
2023-04-08T23:18:58.413Z,14.77
2023-04-08T23:21:27.120Z,14.73
2023-04-08T23:23:54.654Z,16.10
2023-04-08T23:26:22.040Z,15.40
2023-04-08T23:28:49.845Z,15.60
2023-04-08T23:31:17.254Z,15.70
2023-04-08T23:33:44.736Z,15.98
2023-04-08T23:36:12.860Z,14.20
2023-04-08T23:38:40.532Z,15.40
2023-04-08T23:41:08.258Z,15.45
2023-04-08T23:43:36.373Z,16.30
2023-04-08T23:46:03.661Z,16.77
2023-04-08T23:48:31.218Z,17.65
2023-04-08T23:50:58.491Z,17.88
2023-04-08T23:53:25.984Z,18.30
2023-04-08T23:55:53.156Z,20.67
2023-04-08T23:58:20.751Z,23.40
